Board Camp, AR

10:03 AM CST en Marzo 05, 2015 (GMT -0600)
Mena | Change Station
CLOSE
Current Station
Aeropuerto
Location: Mena,
Altura: 1079 ft
Estaciones meteorológicas cercanas

Alt 1079 ft 34.55 °N, 94.20 °W | Updated 8 minutes ago

Despejado
Despejado
32 ° F
Sensación térmica 24 ° F
N
9
Viento Variable Viento desde NNE

Hoy
Alta -- | Baja -- ° F
--% Posibilidad de precipitaciones
Ayer
Alta -- | Baja -- ° F
Precip. -- pul
6:41 AM 6:16 PM
Luna llena, 100% visible
Presión 30.55 pul
Visibilidad 10.0 Millas
Nubes Despejado
Vientos helados 24 ° F
Punto de rocío 18 ° F
Humedad 55%
Precipitaciones 0.00 pul
Espesor de la nieve No disponible.
UV 4 de una escala de 12
Polen 5.30 de una escala de 12
Calidad del aire No disponible.
Flu Activity No disponible.
METAR KMEZ 051555Z AUTO 03008KT 10SM CLR 00/M08 A3055 RMK AO2

More Conditions Fewer Conditions

Presión 30.55 pul
Visibilidad 10.0 Millas
Nubes Despejado
Vientos helados 24 ° F
Punto de rocío 18 ° F
Humedad 55%
Precipitaciones 0.00 pul
Espesor de la nieve No disponible.
UV 4 de una escala de 12
Polen 5.30 de una escala de 12
Calidad del aire No disponible.
Flu Activity No disponible.
METAR KMEZ 051555Z AUTO 03008KT 10SM CLR 00/M08 A3055 RMK AO2

More Conditions Fewer Conditions

10-Day Weather Forecast

Almanac

Astronomía

Mar. 05, 2015 Salida Puesta
Hora real
Crepúsculo civil
Crepúsculo náutico
Crepúsculo astronómico
Luna
Horas de luz
Horas de luz
Tomorrow will be .
, % of the Moon is Illuminated

Extremos de hoy

Máximos del estado Bajos del estado

Community

WunderPhotos

Upload Photos

1,802,833 ¡fotos cargadas!

WunderBlogs® & News

Nearby

Calidad del aire

  Calidad del aire Índice AQ Contaminante
Not available.

Grosos de nieve

Estación Profundido Altura

Actividad de terremotos

Ciudad Distance Mag. Tiempo y dato
Magnitud mínima muestra es 2,5.

Temperaturas de aguas costeras

Lugar Temperatura

Estaciones meteorológicas cercanas